Time;durP1;ratioP1;P1;durP2;ratioP2;P2;SDS_P1;SDS_P2;PMS_P1;PMS_P2;Temp;Humidity;BMP_temperature;BMP_pressure;BME280_temperature;BME280_humidity;BME280_pressure;Samples;Min_cycle;Max_cycle;Signal;HPM_P1;HPM_P2
2023/01/10 00:00:52;;;;;;;13.15;1.90;;;5.30;99.90;;;;;;5047758;28;20045;-64
2023/01/10 00:03:18;;;;;;;16.45;1.88;;;5.30;99.90;;;;;;5049970;28;20511;-64
2023/01/10 00:05:44;;;;;;;19.98;2.28;;;5.30;99.90;;;;;;5047919;28;20044;-64
2023/01/10 00:08:14;;;;;;;19.50;2.08;;;5.30;99.90;;;;;;5048372;28;20040;-65
2023/01/10 00:10:40;;;;;;;15.68;1.92;;;5.30;99.90;;;;;;5048559;28;20041;-65
2023/01/10 00:13:24;;;;;;;11.98;2.20;;;5.20;99.90;;;;;;5048205;28;20506;-64
2023/01/10 00:15:51;;;;;;;12.52;1.73;;;5.20;99.90;;;;;;5048154;28;20115;-64
2023/01/10 00:18:17;;;;;;;17.42;2.08;;;5.10;99.90;;;;;;5046517;28;20044;-64
2023/01/10 00:20:46;;;;;;;11.05;1.80;;;5.10;99.90;;;;;;5048668;28;20088;-64
2023/01/10 00:23:12;;;;;;;10.95;1.55;;;5.00;99.90;;;;;;5015457;28;20048;-64
2023/01/10 00:25:38;;;;;;;17.42;2.17;;;5.00;99.90;;;;;;5030790;28;20483;-64
2023/01/10 00:28:25;;;;;;;17.25;2.40;;;4.90;99.90;;;;;;5043727;28;20037;-64
2023/01/10 00:31:05;;;;;;;13.45;1.92;;;4.90;99.90;;;;;;5022145;28;20080;-64
2023/01/10 00:33:35;;;;;;;15.93;1.98;;;4.80;99.90;;;;;;5047370;28;20033;-64
2023/01/10 00:36:04;;;;;;;19.85;2.45;;;4.80;99.90;;;;;;5046950;28;20080;-64
2023/01/10 00:38:30;;;;;;;16.25;2.38;;;4.80;99.90;;;;;;5048234;28;20064;-64
2023/01/10 00:40:56;;;;;;;21.30;2.58;;;4.80;99.90;;;;;;5030205;28;20037;-64
2023/01/10 00:46:07;;;;;;;14.02;2.17;;;4.70;99.90;;;;;;5047665;28;20506;-64
2023/01/10 00:48:33;;;;;;;16.27;1.83;;;4.70;99.90;;;;;;5038030;28;20076;-64
2023/01/10 00:50:59;;;;;;;17.70;2.15;;;4.70;99.90;;;;;;5025625;28;22081;-64
2023/01/10 00:53:25;;;;;;;24.15;2.30;;;4.70;99.90;;;;;;5045773;28;20068;-64
2023/01/10 00:55:53;;;;;;;14.43;3.00;;;4.70;99.90;;;;;;4999146;28;20076;-64
2023/01/10 00:58:19;;;;;;;14.55;2.30;;;4.80;99.90;;;;;;5044284;28;20084;-64
2023/01/10 01:00:48;;;;;;;30.70;2.55;;;4.80;99.90;;;;;;5024099;28;20084;-65
2023/01/10 01:03:14;;;;;;;22.80;2.15;;;4.80;99.90;;;;;;5045500;28;20518;-65
2023/01/10 01:05:44;;;;;;;16.63;2.55;;;4.80;99.90;;;;;;5012333;28;20057;-65
2023/01/10 01:08:12;;;;;;;28.08;3.40;;;4.90;99.90;;;;;;5046222;28;20049;-65
2023/01/10 01:10:38;;;;;;;19.85;3.00;;;4.90;99.90;;;;;;5045224;28;20055;-64
2023/01/10 01:13:13;;;;;;;16.92;2.10;;;4.80;99.90;;;;;;5047191;28;20033;-65
2023/01/10 01:15:39;;;;;;;23.02;2.88;;;4.80;99.90;;;;;;5029483;28;20128;-64
2023/01/10 01:18:05;;;;;;;25.35;2.97;;;4.80;99.90;;;;;;5024547;28;20552;-64
2023/01/10 01:20:32;;;;;;;19.58;4.15;;;4.70;99.90;;;;;;5017090;28;20048;-64
2023/01/10 01:22:58;;;;;;;21.35;2.33;;;4.70;99.90;;;;;;5025323;28;20136;-64
2023/01/10 01:25:26;;;;;;;29.75;3.85;;;4.70;99.90;;;;;;5025889;28;20061;-64
2023/01/10 01:27:53;;;;;;;24.55;2.33;;;4.70;99.90;;;;;;5038279;28;20479;-65
2023/01/10 01:30:18;;;;;;;22.25;2.75;;;4.70;99.90;;;;;;5019932;28;20051;-64
2023/01/10 01:32:44;;;;;;;31.17;2.47;;;4.70;99.90;;;;;;5042931;28;20033;-64
2023/01/10 01:35:13;;;;;;;31.13;3.38;;;4.70;99.90;;;;;;5048166;28;20047;-64
2023/01/10 01:37:40;;;;;;;26.30;2.80;;;4.60;99.90;;;;;;5047649;28;20048;-64
2023/01/10 01:40:07;;;;;;;34.45;2.78;;;4.60;99.90;;;;;;5044662;28;20480;-64
2023/01/10 01:42:34;;;;;;;30.15;3.08;;;4.60;99.90;;;;;;5046943;28;20177;-64
2023/01/10 01:45:12;;;;;;;24.15;2.88;;;4.60;99.90;;;;;;5046141;28;20029;-65
2023/01/10 01:47:46;;;;;;;23.50;2.80;;;4.70;99.90;;;;;;5047421;28;20451;-64
2023/01/10 01:50:37;;;;;;;29.92;3.42;;;4.70;99.90;;;;;;5040662;28;20088;-64
2023/01/10 01:53:12;;;;;;;24.15;5.82;;;4.70;99.90;;;;;;5038187;28;20487;-65
2023/01/10 01:55:40;;;;;;;16.70;2.25;;;4.60;99.90;;;;;;5046434;28;20037;-64
2023/01/10 01:58:17;;;;;;;16.90;2.17;;;4.60;99.90;;;;;;5046613;28;20099;-64
2023/01/10 02:00:43;;;;;;;14.23;2.55;;;4.60;99.90;;;;;;5042651;28;20049;-65
2023/01/10 02:03:10;;;;;;;21.88;1.92;;;4.60;99.90;;;;;;5019406;28;20048;-65
2023/01/10 02:05:38;;;;;;;23.85;2.67;;;4.60;99.90;;;;;;5046760;28;20056;-64
2023/01/10 02:08:04;;;;;;;31.95;3.28;;;4.60;99.90;;;;;;5037736;28;20364;-65
2023/01/10 02:10:43;;;;;;;23.92;2.85;;;4.50;99.90;;;;;;5045967;28;20391;-65
2023/01/10 02:13:13;;;;;;;23.42;2.55;;;4.50;99.90;;;;;;5040823;28;20037;-64
2023/01/10 02:15:39;;;;;;;15.40;2.25;;;4.40;99.90;;;;;;5022279;28;20083;-63
2023/01/10 02:18:05;;;;;;;18.38;2.35;;;4.30;99.90;;;;;;5046466;28;20045;-63
2023/01/10 02:20:57;;;;;;;18.55;2.75;;;4.30;99.90;;;;;;5046230;28;20041;-62
2023/01/10 02:23:46;;;;;;;21.70;2.13;;;4.30;99.90;;;;;;5019343;28;20045;-63
2023/01/10 02:26:44;;;;;;;30.05;2.80;;;4.40;99.90;;;;;;5027973;28;20048;-63
2023/01/10 02:29:42;;;;;;;35.08;3.53;;;4.40;99.90;;;;;;5045795;28;20060;-63
2023/01/10 02:32:43;;;;;;;29.90;3.28;;;4.50;99.90;;;;;;4976876;28;20547;-63
2023/01/10 02:35:26;;;;;;;30.48;3.08;;;4.60;99.90;;;;;;4996176;28;20165;-62
2023/01/10 02:38:28;;;;;;;24.02;2.90;;;4.70;99.90;;;;;;5041772;28;20958;-62
2023/01/10 02:41:14;;;;;;;30.55;3.10;;;4.90;99.90;;;;;;5043081;28;20055;-62
2023/01/10 02:43:53;;;;;;;26.73;2.88;;;4.90;99.90;;;;;;5033776;28;20045;-62
2023/01/10 02:46:28;;;;;;;38.40;3.72;;;4.90;99.90;;;;;;5044710;28;20417;-62
2023/01/10 02:48:54;;;;;;;24.13;3.08;;;4.90;99.90;;;;;;5046600;28;20044;-65
2023/01/10 02:51:22;;;;;;;21.17;2.70;;;4.90;99.90;;;;;;5027923;28;20139;-65
2023/01/10 02:54:08;;;;;;;29.15;2.75;;;4.90;99.90;;;;;;5046194;28;20049;-65
2023/01/10 02:56:36;;;;;;;22.95;3.10;;;4.80;99.90;;;;;;5014728;28;20072;-65
2023/01/10 02:59:28;;;;;;;26.13;2.72;;;4.80;99.90;;;;;;5011370;28;20041;-63
2023/01/10 03:02:21;;;;;;;31.67;3.28;;;4.80;99.90;;;;;;5039576;28;20056;-63
2023/01/10 03:05:19;;;;;;;24.85;3.72;;;4.70;99.90;;;;;;5045495;28;20132;-63
2023/01/10 03:08:03;;;;;;;23.88;2.88;;;4.80;99.90;;;;;;5035482;28;20044;-63
2023/01/10 03:10:55;;;;;;;25.52;3.30;;;4.70;99.90;;;;;;5028048;28;20048;-63
2023/01/10 03:13:50;;;;;;;27.30;2.35;;;4.70;99.90;;;;;;5040266;28;20073;-62
2023/01/10 03:16:22;;;;;;;21.88;2.72;;;4.70;99.90;;;;;;5041694;28;20071;-62
2023/01/10 03:18:50;;;;;;;23.17;2.70;;;4.80;99.90;;;;;;5028549;28;20507;-63
2023/01/10 03:21:18;;;;;;;24.23;2.85;;;4.80;99.90;;;;;;5047649;28;20048;-63
2023/01/10 03:23:46;;;;;;;29.17;2.53;;;4.80;99.90;;;;;;5049401;28;20056;-63
2023/01/10 03:26:13;;;;;;;24.20;3.17;;;4.90;99.90;;;;;;5029894;28;20067;-62
2023/01/10 03:28:51;;;;;;;32.38;2.83;;;4.90;99.90;;;;;;5049257;28;20052;-62
2023/01/10 03:31:30;;;;;;;32.17;2.88;;;4.90;99.90;;;;;;5047647;28;20124;-63
2023/01/10 03:33:56;;;;;;;26.20;2.83;;;4.90;99.90;;;;;;5049391;28;20077;-62
2023/01/10 03:36:40;;;;;;;20.55;2.55;;;5.00;99.90;;;;;;5048962;28;20112;-62
2023/01/10 03:39:24;;;;;;;25.42;2.83;;;5.00;99.90;;;;;;5040323;28;20044;-63
2023/01/10 03:42:01;;;;;;;22.55;2.65;;;5.00;99.90;;;;;;5035310;28;20080;-62
2023/01/10 03:44:50;;;;;;;34.53;2.80;;;5.10;99.90;;;;;;5048928;28;20045;-63
2023/01/10 03:47:54;;;;;;;37.72;3.63;;;5.20;99.90;;;;;;5037129;28;20053;-63
2023/01/10 03:50:23;;;;;;;21.98;2.65;;;5.20;99.90;;;;;;5033763;28;20110;-63
2023/01/10 03:52:49;;;;;;;19.25;2.42;;;5.30;99.90;;;;;;5041691;28;20048;-63
2023/01/10 03:55:19;;;;;;;33.20;3.58;;;5.30;99.90;;;;;;5048659;28;20099;-63
2023/01/10 03:57:46;;;;;;;19.55;3.05;;;5.30;99.90;;;;;;5048866;28;20041;-62
2023/01/10 04:00:13;;;;;;;24.63;2.97;;;5.40;99.90;;;;;;5031033;28;20048;-63
2023/01/10 04:02:39;;;;;;;15.98;2.60;;;5.40;99.90;;;;;;5023157;28;20067;-62
2023/01/10 04:05:06;;;;;;;21.88;2.97;;;5.40;99.90;;;;;;5026122;28;20052;-63
2023/01/10 04:07:31;;;;;;;21.02;2.30;;;5.40;99.90;;;;;;5048181;28;20399;-63
2023/01/10 04:09:57;;;;;;;22.95;2.35;;;5.30;99.90;;;;;;5048579;28;20049;-62
2023/01/10 04:12:23;;;;;;;23.63;2.95;;;5.30;99.90;;;;;;5047579;28;20049;-62
2023/01/10 04:14:49;;;;;;;24.05;2.72;;;5.20;99.90;;;;;;5014464;28;20053;-63
2023/01/10 04:17:17;;;;;;;19.02;2.17;;;5.10;99.90;;;;;;5026388;28;20496;-62
2023/01/10 04:19:44;;;;;;;37.20;4.07;;;5.10;99.90;;;;;;5034660;28;20251;-62
2023/01/10 04:22:11;;;;;;;17.65;2.67;;;5.10;99.90;;;;;;5030353;28;20048;-62
2023/01/10 04:24:37;;;;;;;17.55;2.08;;;5.10;99.90;;;;;;5029230;28;20542;-62
2023/01/10 04:27:03;;;;;;;20.75;2.88;;;5.10;99.90;;;;;;5047977;28;20380;-62
2023/01/10 04:29:29;;;;;;;15.57;2.25;;;5.10;99.90;;;;;;5046659;28;20053;-63
2023/01/10 04:31:55;;;;;;;17.02;3.30;;;5.10;99.90;;;;;;5047273;28;20071;-63
2023/01/10 04:34:20;;;;;;;19.23;2.35;;;5.10;99.90;;;;;;5047187;28;20037;-62
2023/01/10 04:36:47;;;;;;;18.58;2.60;;;5.20;99.90;;;;;;5046905;28;20130;-62
2023/01/10 04:39:13;;;;;;;14.07;2.30;;;5.20;99.90;;;;;;5040182;28;20053;-62
2023/01/10 04:41:39;;;;;;;27.67;2.20;;;5.20;99.90;;;;;;5039720;28;20052;-62
2023/01/10 04:44:05;;;;;;;17.40;2.53;;;5.20;99.90;;;;;;5029815;28;20376;-63
2023/01/10 04:46:31;;;;;;;27.10;2.58;;;5.20;99.90;;;;;;5028832;28;20095;-65
2023/01/10 04:48:58;;;;;;;10.05;1.67;;;5.20;99.90;;;;;;5048034;28;20040;-65
2023/01/10 04:51:24;;;;;;;25.77;2.65;;;5.10;99.90;;;;;;5028370;28;20570;-65
2023/01/10 04:53:50;;;;;;;17.52;3.00;;;5.10;99.90;;;;;;5047939;28;20086;-65
2023/01/10 04:56:19;;;;;;;20.98;2.30;;;5.10;99.90;;;;;;5046359;28;20462;-65
2023/01/10 04:58:46;;;;;;;25.17;3.30;;;5.10;99.90;;;;;;5042152;28;20523;-65
2023/01/10 05:01:21;;;;;;;23.67;2.55;;;5.00;99.90;;;;;;5035260;28;20057;-65
2023/01/10 05:03:48;;;;;;;26.05;2.80;;;5.10;99.90;;;;;;5044209;28;20081;-65
2023/01/10 05:06:14;;;;;;;25.83;3.70;;;5.10;99.90;;;;;;5047766;28;20048;-65
2023/01/10 05:08:41;;;;;;;19.48;2.55;;;5.10;99.90;;;;;;5046670;28;20083;-65
2023/01/10 05:11:07;;;;;;;8.98;1.60;;;5.10;99.90;;;;;;5045557;28;20087;-65
2023/01/10 05:13:32;;;;;;;24.17;2.53;;;5.10;99.90;;;;;;5041639;28;20045;-65
2023/01/10 05:15:59;;;;;;;17.90;2.70;;;5.10;99.90;;;;;;5039172;28;20483;-65
2023/01/10 05:18:26;;;;;;;13.07;2.05;;;5.10;99.90;;;;;;5042820;28;20068;-65
2023/01/10 05:20:52;;;;;;;19.13;2.95;;;5.10;99.90;;;;;;5047167;28;20045;-65
2023/01/10 05:23:18;;;;;;;14.07;2.45;;;5.10;99.90;;;;;;5047262;28;20052;-65
2023/01/10 05:25:44;;;;;;;18.67;2.70;;;5.10;99.90;;;;;;5041194;28;20143;-65
2023/01/10 05:28:10;;;;;;;24.00;2.80;;;5.10;99.90;;;;;;5046725;28;20399;-65
2023/01/10 05:30:35;;;;;;;16.83;2.10;;;5.10;99.90;;;;;;5046541;28;20052;-65
2023/01/10 05:33:03;;;;;;;29.38;3.00;;;5.10;99.90;;;;;;5046909;28;20045;-65
2023/01/10 05:35:30;;;;;;;28.02;2.92;;;5.20;99.90;;;;;;5046340;28;20106;-65
2023/01/10 05:37:56;;;;;;;27.90;2.78;;;5.30;99.90;;;;;;5041516;28;20045;-66
2023/01/10 05:40:22;;;;;;;29.73;3.13;;;5.20;99.90;;;;;;5022077;28;20167;-65
2023/01/10 05:42:49;;;;;;;26.60;2.88;;;5.20;99.90;;;;;;5046609;28;20044;-65
2023/01/10 05:45:14;;;;;;;26.45;3.38;;;5.20;99.90;;;;;;5012070;28;20053;-65
2023/01/10 05:47:40;;;;;;;19.50;3.03;;;5.10;99.90;;;;;;5015605;28;20549;-65
2023/01/10 05:50:06;;;;;;;22.90;2.78;;;5.20;99.90;;;;;;5046921;28;20037;-65
2023/01/10 05:52:32;;;;;;;15.50;2.33;;;5.10;99.90;;;;;;5046191;28;20123;-65
2023/01/10 05:54:58;;;;;;;22.70;2.60;;;5.10;99.90;;;;;;5046555;28;20041;-65
2023/01/10 05:57:23;;;;;;;17.38;2.90;;;5.10;99.90;;;;;;5046499;28;20424;-65
2023/01/10 05:59:50;;;;;;;27.52;2.90;;;5.20;99.90;;;;;;5046206;28;20459;-65
2023/01/10 06:02:16;;;;;;;30.10;3.58;;;5.20;99.90;;;;;;5022512;28;20083;-66
2023/01/10 06:04:42;;;;;;;24.15;3.50;;;5.10;99.90;;;;;;5041109;28;20048;-65
2023/01/10 06:07:09;;;;;;;16.33;2.53;;;5.10;99.90;;;;;;5046504;28;20033;-65
2023/01/10 06:09:35;;;;;;;16.48;2.38;;;5.20;99.90;;;;;;5040057;28;20053;-65
2023/01/10 06:12:01;;;;;;;23.52;3.35;;;5.20;99.90;;;;;;5039557;28;20079;-65
2023/01/10 06:14:27;;;;;;;15.90;3.10;;;5.20;99.90;;;;;;5046135;28;20094;-65
2023/01/10 06:16:53;;;;;;;20.58;2.28;;;5.30;99.90;;;;;;5046273;28;20041;-63
2023/01/10 06:19:18;;;;;;;18.13;2.40;;;5.30;99.90;;;;;;5045317;28;20124;-63
2023/01/10 06:21:44;;;;;;;23.95;3.00;;;5.20;99.90;;;;;;5043683;28;20044;-63
2023/01/10 06:24:10;;;;;;;34.55;3.28;;;5.30;99.90;;;;;;5045845;28;20590;-63
2023/01/10 06:26:35;;;;;;;28.77;3.78;;;5.30;99.90;;;;;;5046197;28;20107;-63
2023/01/10 06:29:01;;;;;;;20.98;2.60;;;5.30;99.90;;;;;;5046409;28;20063;-63
2023/01/10 06:31:27;;;;;;;31.25;3.60;;;5.30;99.90;;;;;;5010830;28;20037;-63
2023/01/10 06:33:53;;;;;;;17.95;2.95;;;5.30;99.90;;;;;;5045214;28;20429;-63
2023/01/10 06:36:19;;;;;;;17.15;2.55;;;5.30;99.90;;;;;;5028234;28;20045;-63
2023/01/10 06:38:45;;;;;;;19.25;2.80;;;5.40;99.90;;;;;;5045720;28;20041;-63
2023/01/10 06:41:14;;;;;;;21.02;2.90;;;5.30;99.90;;;;;;5046452;28;20123;-63
2023/01/10 06:43:40;;;;;;;19.38;3.20;;;5.50;99.90;;;;;;5045779;28;20423;-63
2023/01/10 06:46:08;;;;;;;23.90;3.55;;;5.50;99.90;;;;;;5044661;28;20081;-63
2023/01/10 06:48:35;;;;;;;20.55;2.40;;;5.50;99.90;;;;;;5048735;28;20048;-63
2023/01/10 06:51:02;;;;;;;19.05;2.85;;;5.60;99.90;;;;;;5049596;28;20033;-63
2023/01/10 06:53:29;;;;;;;22.30;3.33;;;5.50;99.90;;;;;;5049906;28;20395;-63
2023/01/10 06:55:56;;;;;;;20.88;3.13;;;5.50;99.90;;;;;;5049414;28;20858;-63
2023/01/10 06:58:22;;;;;;;26.15;3.70;;;5.50;99.90;;;;;;5044202;28;20045;-63
2023/01/10 07:00:48;;;;;;;34.30;3.35;;;5.50;99.90;;;;;;5048791;28;20040;-63
2023/01/10 07:03:14;;;;;;;16.67;3.03;;;5.50;99.90;;;;;;5049914;28;20053;-63
2023/01/10 07:05:40;;;;;;;20.33;3.47;;;5.40;99.90;;;;;;5031500;28;20048;-63
2023/01/10 07:08:06;;;;;;;20.02;3.00;;;5.40;99.90;;;;;;5049959;28;20112;-63
2023/01/10 07:10:32;;;;;;;21.15;3.28;;;5.40;99.90;;;;;;5039022;28;20041;-63
2023/01/10 07:12:58;;;;;;;26.50;3.38;;;5.30;99.90;;;;;;5027830;28;20048;-63
2023/01/10 07:15:25;;;;;;;13.02;2.92;;;5.30;99.90;;;;;;5042141;28;20053;-63
2023/01/10 07:17:56;;;;;;;26.55;3.28;;;5.20;99.90;;;;;;5049121;28;20120;-63
2023/01/10 07:20:23;;;;;;;25.30;3.15;;;5.10;99.90;;;;;;5049750;28;20040;-63
2023/01/10 07:22:57;;;;;;;26.42;3.13;;;5.10;99.90;;;;;;5036885;28;20175;-63
2023/01/10 07:25:24;;;;;;;16.17;2.33;;;5.10;99.90;;;;;;5049568;28;20589;-63
2023/01/10 07:27:50;;;;;;;17.77;2.60;;;5.00;99.90;;;;;;5049017;28;20063;-63
2023/01/10 07:30:16;;;;;;;18.85;2.92;;;5.00;99.90;;;;;;5049118;28;20057;-63
2023/01/10 07:32:42;;;;;;;31.75;3.10;;;5.00;99.90;;;;;;5046128;28;20045;-63
2023/01/10 07:35:08;;;;;;;17.67;2.90;;;4.90;99.90;;;;;;5048437;28;20544;-63
2023/01/10 07:37:34;;;;;;;18.85;2.80;;;5.00;99.90;;;;;;5048776;28;20538;-63
2023/01/10 07:39:59;;;;;;;22.90;2.95;;;5.10;99.90;;;;;;5027345;28;20045;-63
2023/01/10 07:42:25;;;;;;;19.50;2.80;;;5.10;99.90;;;;;;5049167;28;20597;-63
2023/01/10 07:44:52;;;;;;;26.27;3.42;;;5.20;99.90;;;;;;5043643;28;20040;-63
2023/01/10 07:47:23;;;;;;;20.50;3.05;;;5.20;99.90;;;;;;5048960;28;20041;-63
2023/01/10 07:49:49;;;;;;;20.42;2.95;;;5.20;99.90;;;;;;5047954;28;20451;-63
2023/01/10 07:52:15;;;;;;;16.95;2.63;;;5.20;99.90;;;;;;5028649;28;20091;-63
2023/01/10 07:54:40;;;;;;;27.20;3.17;;;5.30;99.90;;;;;;5047841;28;20077;-63
2023/01/10 07:57:06;;;;;;;20.75;2.20;;;5.20;99.90;;;;;;5046494;28;20094;-63
2023/01/10 07:59:32;;;;;;;15.40;2.65;;;5.30;99.90;;;;;;5048205;28;20044;-63
2023/01/10 08:01:58;;;;;;;25.42;2.78;;;5.20;99.90;;;;;;5045200;28;20052;-63
2023/01/10 08:04:24;;;;;;;18.95;2.95;;;5.30;99.90;;;;;;5045874;28;20118;-63
2023/01/10 08:06:52;;;;;;;20.00;2.60;;;5.30;99.90;;;;;;5026908;28;20045;-63
2023/01/10 08:09:18;;;;;;;20.17;2.40;;;5.30;99.90;;;;;;5048767;28;20048;-63
2023/01/10 08:11:44;;;;;;;17.98;2.88;;;5.40;99.90;;;;;;5048187;28;20087;-63
2023/01/10 08:14:10;;;;;;;21.63;2.85;;;5.40;99.90;;;;;;5046603;28;20041;-63
2023/01/10 08:16:35;;;;;;;15.68;2.80;;;5.40;99.90;;;;;;5048310;28;20526;-63
2023/01/10 08:19:01;;;;;;;33.60;3.05;;;5.40;99.90;;;;;;5043152;28;20045;-63
2023/01/10 08:21:27;;;;;;;27.52;3.67;;;5.50;99.90;;;;;;5048049;28;20041;-63
2023/01/10 08:23:54;;;;;;;28.02;3.20;;;5.50;99.90;;;;;;5029801;28;20506;-64
2023/01/10 08:26:19;;;;;;;32.22;3.47;;;5.50;99.90;;;;;;5029637;28;20044;-63
2023/01/10 08:28:45;;;;;;;16.88;2.67;;;5.50;99.90;;;;;;5047662;28;20055;-63
2023/01/10 08:31:11;;;;;;;24.50;3.03;;;5.50;99.90;;;;;;5047424;28;20114;-63
2023/01/10 08:33:38;;;;;;;19.10;2.33;;;5.70;99.90;;;;;;5046644;28;20499;-63
2023/01/10 08:36:05;;;;;;;34.78;4.20;;;5.70;99.90;;;;;;5047157;28;20040;-63
2023/01/10 08:38:31;;;;;;;35.25;4.68;;;5.70;99.90;;;;;;5047975;28;20543;-63
2023/01/10 08:40:57;;;;;;;31.08;4.10;;;5.70;99.90;;;;;;5047234;28;20076;-63
2023/01/10 08:43:23;;;;;;;21.85;3.97;;;5.80;99.90;;;;;;5026606;28;20132;-63
2023/01/10 08:45:49;;;;;;;28.77;4.60;;;5.80;99.90;;;;;;5027930;28;20041;-63
2023/01/10 08:48:15;;;;;;;41.55;4.65;;;5.80;99.90;;;;;;5046616;28;20033;-64
2023/01/10 08:50:41;;;;;;;27.00;3.92;;;5.80;99.90;;;;;;5047287;28;20111;-63
2023/01/10 08:53:07;;;;;;;29.35;3.72;;;5.90;99.90;;;;;;5046163;28;20492;-63
2023/01/10 08:55:34;;;;;;;34.60;4.88;;;5.80;99.90;;;;;;5047177;28;20033;-63
2023/01/10 08:58:00;;;;;;;23.33;3.72;;;5.80;99.90;;;;;;5045682;28;20073;-63
2023/01/10 09:00:27;;;;;;;23.73;4.05;;;5.80;99.90;;;;;;5044452;28;20095;-63
2023/01/10 09:02:52;;;;;;;37.45;4.82;;;5.90;99.90;;;;;;5046782;28;20162;-63
2023/01/10 09:05:19;;;;;;;35.05;4.43;;;5.90;99.90;;;;;;5046798;28;20085;-63
2023/01/10 09:07:45;;;;;;;32.97;3.80;;;5.90;99.90;;;;;;5027746;28;20064;-63
2023/01/10 09:10:11;;;;;;;40.00;5.18;;;6.00;99.90;;;;;;5045242;28;20041;-63
2023/01/10 09:12:55;;;;;;;26.95;3.17;;;6.00;99.90;;;;;;5046538;28;20480;-63
2023/01/10 09:15:26;;;;;;;38.97;4.65;;;6.10;99.90;;;;;;5046094;28;20049;-63
2023/01/10 09:17:56;;;;;;;36.88;4.68;;;6.10;99.90;;;;;;5047013;28;20041;-63
2023/01/10 09:20:23;;;;;;;;;;;6.20;99.90;;;;;;5029002;28;20044;-63
2023/01/10 09:22:49;;;;;;;32.45;4.93;;;6.30;99.90;;;;;;5045108;28;19925;-63
2023/01/10 09:25:14;;;;;;;25.80;3.35;;;6.30;99.90;;;;;;5026455;28;20041;-63
2023/01/10 09:27:40;;;;;;;31.90;3.78;;;6.30;99.90;;;;;;5046239;28;20499;-63
2023/01/10 09:30:08;;;;;;;23.95;3.47;;;6.40;99.90;;;;;;5044423;28;20142;-63
2023/01/10 09:32:34;;;;;;;26.98;3.75;;;6.40;99.90;;;;;;5026822;28;20060;-63
2023/01/10 09:35:00;;;;;;;31.10;4.90;;;6.50;99.90;;;;;;5028263;28;20410;-63
2023/01/10 09:37:26;;;;;;;25.70;3.95;;;6.40;99.90;;;;;;5028588;28;20045;-64
2023/01/10 09:39:51;;;;;;;40.70;4.82;;;6.50;99.90;;;;;;5047027;28;20040;-63
2023/01/10 09:42:43;;;;;;;14.57;2.05;;;6.50;99.90;;;;;;5028084;28;20036;-63
2023/01/10 09:45:41;;;;;;;39.35;5.43;;;6.50;99.90;;;;;;5028524;28;20068;-63
2023/01/10 09:48:33;;;;;;;43.33;4.32;;;6.60;99.90;;;;;;5039885;28;20072;-63
2023/01/10 09:51:04;;;;;;;22.17;2.85;;;6.60;99.90;;;;;;5028991;28;20147;-63
2023/01/10 09:53:33;;;;;;;22.48;3.22;;;6.70;99.90;;;;;;5028702;28;20472;-63
2023/01/10 09:56:00;;;;;;;26.20;4.82;;;6.80;99.90;;;;;;5046605;28;20045;-63
2023/01/10 09:58:31;;;;;;;14.77;3.30;;;6.90;99.90;;;;;;5045275;28;20506;-63
2023/01/10 10:01:15;;;;;;;24.67;5.18;;;7.00;99.90;;;;;;5043839;28;20480;-63
2023/01/10 10:03:53;;;;;;;29.77;5.45;;;7.00;99.90;;;;;;5042643;28;20128;-63
2023/01/10 10:06:21;;;;;;;25.85;3.00;;;7.00;99.90;;;;;;5044812;28;20072;-63
2023/01/10 10:08:47;;;;;;;30.13;3.92;;;7.00;99.90;;;;;;5045272;28;20043;-63
2023/01/10 10:11:25;;;;;;;24.63;4.13;;;7.00;99.90;;;;;;5011807;28;20085;-63
2023/01/10 10:14:05;;;;;;;16.58;2.97;;;7.00;99.90;;;;;;5008804;28;20053;-63
2023/01/10 10:17:12;;;;;;;25.95;3.50;;;7.00;99.90;;;;;;5025016;28;20046;-64
2023/01/10 10:20:04;;;;;;;10.75;1.67;;;7.00;99.90;;;;;;4942276;29;20049;-63
2023/01/10 10:22:51;;;;;;;27.38;4.10;;;7.00;99.90;;;;;;5021170;28;20064;-63
2023/01/10 10:25:52;;;;;;;23.50;3.03;;;7.00;99.90;;;;;;5047007;28;20045;-63
2023/01/10 10:28:50;;;;;;;29.30;4.10;;;7.00;99.90;;;;;;5018691;28;20048;-64
2023/01/10 10:31:37;;;;;;;21.90;3.17;;;7.10;99.90;;;;;;5048555;28;20584;-63
2023/01/10 10:34:40;;;;;;;23.20;3.65;;;7.10;99.90;;;;;;5048803;28;20048;-64
2023/01/10 10:37:13;;;;;;;30.13;3.90;;;7.10;99.90;;;;;;5021248;28;20073;-63
2023/01/10 10:39:47;;;;;;;26.10;3.80;;;7.20;99.90;;;;;;5047971;28;20052;-63
2023/01/10 10:42:16;;;;;;;25.48;4.18;;;7.20;99.90;;;;;;5043498;28;20040;-64
2023/01/10 10:44:57;;;;;;;33.38;3.72;;;7.20;99.90;;;;;;5048829;28;20079;-63
2023/01/10 10:47:31;;;;;;;40.33;5.85;;;7.20;99.90;;;;;;5048410;28;20045;-63
2023/01/10 10:50:20;;;;;;;35.72;4.47;;;7.20;99.90;;;;;;5029696;28;20055;-64
2023/01/10 10:52:47;;;;;;;23.13;3.28;;;7.20;99.90;;;;;;5045776;28;20505;-63
2023/01/10 10:55:17;;;;;;;39.33;4.43;;;7.20;99.90;;;;;;5047532;28;20036;-63
2023/01/10 10:57:45;;;;;;;25.52;3.85;;;7.20;99.90;;;;;;5028630;28;20060;-64
2023/01/10 11:00:21;;;;;;;29.88;3.42;;;7.20;99.90;;;;;;5047247;28;20041;-64
2023/01/10 11:02:54;;;;;;;22.60;3.55;;;7.20;99.90;;;;;;5006251;28;1132550;-63
2023/01/10 11:05:31;;;;;;;23.45;3.60;;;7.20;99.90;;;;;;5047208;28;20063;-63
2023/01/10 11:08:15;;;;;;;21.77;3.88;;;7.20;99.90;;;;;;5030387;28;20136;-63
2023/01/10 11:10:48;;;;;;;34.58;4.25;;;7.20;99.90;;;;;;5048798;28;20542;-64
2023/01/10 11:13:32;;;;;;;32.05;4.32;;;7.20;99.90;;;;;;5049087;28;20045;-63
2023/01/10 11:15:59;;;;;;;17.58;2.90;;;7.20;99.90;;;;;;5047243;28;20127;-63
2023/01/10 11:18:28;;;;;;;27.42;4.32;;;7.20;99.90;;;;;;5048562;28;20179;-64
2023/01/10 11:20:56;;;;;;;16.08;3.30;;;7.20;99.90;;;;;;5042475;28;20132;-64
2023/01/10 11:23:54;;;;;;;25.00;3.40;;;7.20;99.90;;;;;;5030043;28;20095;-64
2023/01/10 11:26:39;;;;;;;32.30;3.78;;;7.20;99.90;;;;;;5044739;28;20064;-63
2023/01/10 11:29:15;;;;;;;32.97;4.53;;;7.20;99.90;;;;;;5045308;28;20048;-64
2023/01/10 11:31:42;;;;;;;31.02;4.45;;;7.30;99.90;;;;;;5045367;28;20056;-64
2023/01/10 11:34:21;;;;;;;34.40;4.45;;;7.30;99.90;;;;;;5028086;28;20072;-63
2023/01/10 11:37:01;;;;;;;28.92;4.43;;;7.30;99.90;;;;;;5046964;28;20106;-63
2023/01/10 11:39:28;;;;;;;28.80;4.05;;;7.40;99.90;;;;;;5013511;28;20045;-63
2023/01/10 11:41:55;;;;;;;32.22;4.60;;;7.40;99.90;;;;;;5044516;28;20052;-64
2023/01/10 11:44:25;;;;;;;38.45;6.40;;;7.40;99.90;;;;;;5047929;28;20492;-64
2023/01/10 11:47:04;;;;;;;36.50;5.43;;;7.40;99.90;;;;;;5045773;28;20547;-64
2023/01/10 11:49:35;;;;;;;27.65;3.85;;;7.50;99.90;;;;;;5047861;28;20467;-63
2023/01/10 11:52:23;;;;;;;29.00;4.53;;;7.50;99.90;;;;;;5046066;28;20495;-63
2023/01/10 11:54:53;;;;;;;20.20;3.45;;;7.50;99.90;;;;;;5046257;28;20120;-65
2023/01/10 11:57:26;;;;;;;25.30;3.67;;;7.50;99.90;;;;;;5029548;28;20456;-63
2023/01/10 11:59:59;;;;;;;31.63;5.68;;;7.50;99.90;;;;;;5046710;28;20475;-63
2023/01/10 12:02:29;;;;;;;15.18;2.33;;;7.50;99.90;;;;;;5042339;28;20049;-63
2023/01/10 12:04:58;;;;;;;9.88;2.05;;;7.60;99.90;;;;;;5042713;28;20499;-63
2023/01/10 12:07:23;;;;;;;20.17;4.68;;;7.50;99.90;;;;;;5042844;28;20613;-63
2023/01/10 12:10:00;;;;;;;33.08;4.95;;;7.50;99.90;;;;;;5010351;28;20136;-63
2023/01/10 12:12:34;;;;;;;14.88;3.05;;;7.50;99.90;;;;;;5021566;28;20057;-63
2023/01/10 12:15:33;;;;;;;40.20;6.82;;;7.50;99.90;;;;;;5047596;28;20127;-64
2023/01/10 12:18:02;;;;;;;26.35;6.05;;;7.50;99.90;;;;;;5042579;28;20102;-64
2023/01/10 12:20:40;;;;;;;40.50;5.85;;;7.50;99.90;;;;;;5026929;28;20057;-64
2023/01/10 12:23:13;;;;;;;35.97;6.30;;;7.50;99.90;;;;;;5047743;28;20071;-64
2023/01/10 12:25:41;;;;;;;5.03;1.42;;;7.50;99.90;;;;;;5038829;28;20045;-64
2023/01/10 12:28:22;;;;;;;34.55;7.22;;;7.50;99.90;;;;;;5043547;28;20075;-64
2023/01/10 12:30:50;;;;;;;32.22;6.03;;;7.50;99.90;;;;;;5036733;28;20041;-64
2023/01/10 12:33:20;;;;;;;42.03;7.20;;;7.50;99.90;;;;;;5029312;28;20056;-64
2023/01/10 12:36:14;;;;;;;41.10;6.88;;;7.50;99.90;;;;;;5042896;28;20045;-64
2023/01/10 12:39:15;;;;;;;22.20;5.25;;;7.50;99.90;;;;;;5041203;28;20579;-64
2023/01/10 12:44:32;;;;;;;33.22;6.07;;;7.50;99.90;;;;;;5041076;28;20045;-64
2023/01/10 12:47:12;;;;;;;33.17;6.38;;;7.50;99.90;;;;;;5047350;28;20550;-64
2023/01/10 12:49:48;;;;;;;15.45;3.17;;;7.50;99.90;;;;;;5037772;28;20706;-63
2023/01/10 12:52:33;;;;;;;24.98;5.60;;;7.50;99.90;;;;;;5046122;28;20091;-64
2023/01/10 12:54:59;;;;;;;23.15;4.05;;;7.50;99.90;;;;;;5027855;28;20045;-64
2023/01/10 12:57:30;;;;;;;10.15;2.20;;;7.50;99.90;;;;;;5012421;28;20053;-64
2023/01/10 13:00:01;;;;;;;25.60;5.57;;;7.40;99.90;;;;;;5028399;28;20067;-64
2023/01/10 13:02:46;;;;;;;38.10;5.70;;;7.40;99.90;;;;;;5040243;28;20068;-64
2023/01/10 13:05:22;;;;;;;30.20;5.75;;;7.40;99.90;;;;;;5046014;28;20642;-64
2023/01/10 13:07:50;;;;;;;34.72;6.13;;;7.40;99.90;;;;;;5046727;28;20071;-64
2023/01/10 13:10:22;;;;;;;24.20;4.05;;;7.40;99.90;;;;;;5025136;28;20050;-64
2023/01/10 13:13:15;;;;;;;25.63;4.25;;;7.30;99.90;;;;;;5044302;28;20484;-63
2023/01/10 13:15:50;;;;;;;7.25;1.63;;;7.30;99.90;;;;;;5046219;28;20484;-64